Time,TemperatureF,DewpointF,PressureIn,WindDirection,WindDirectionDegrees,WindSpeedMPH,WindSpeedGustMPH,Humidity,HourlyPrecipIn,Conditions,Clouds,dailyrainin,SoftwareType,DateUTC
2013-01-18 00:00:00,15.1,8.0,30.10,West,270,1.2,8.2,63,0.00,,,0.00,Rainwise IP-100,2013-01-18 05:00:00,
2013-01-18 00:02:00,15.1,8.0,30.10,NW,315,0.0,5.4,63,0.00,,,0.00,Rainwise IP-100,2013-01-18 05:02:00,
2013-01-18 00:03:00,15.1,8.0,30.10,NW,315,4.4,10.5,63,0.00,,,0.00,Rainwise IP-100,2013-01-18 05:03:00,
2013-01-18 00:08:00,15.2,8.0,30.09,SE,135,0.0,6.5,64,0.00,,,0.00,Rainwise IP-100,2013-01-18 05:08:00,
2013-01-18 00:13:00,15.1,8.0,30.10,West,270,1.4,6.5,63,0.00,,,0.00,Rainwise IP-100,2013-01-18 05:13:00,
2013-01-18 00:18:00,14.9,4.0,30.09,North,0,3.7,12.4,61,0.00,,,0.00,Rainwise IP-100,2013-01-18 05:18:00,
2013-01-18 00:23:00,14.7,4.0,30.09,WSW,247,1.2,7.2,61,0.00,,,0.00,Rainwise IP-100,2013-01-18 05:23:00,
2013-01-18 00:28:00,14.6,8.0,30.09,NW,315,1.2,14.5,62,0.00,,,0.00,Rainwise IP-100,2013-01-18 05:28:00,
2013-01-18 00:33:00,14.5,8.0,30.08,NE,45,11.4,14.2,63,0.00,,,0.00,Rainwise IP-100,2013-01-18 05:33:00,
2013-01-18 00:38:00,14.2,4.0,30.09,SSW,202,1.9,14.5,62,0.00,,,0.00,Rainwise IP-100,2013-01-18 05:38:00,
2013-01-18 00:43:00,13.7,4.0,30.08,NE,45,3.7,17.5,61,0.00,,,0.00,Rainwise IP-100,2013-01-18 05:43:00,
2013-01-18 00:48:00,13.3,4.0,30.09,SE,135,2.3,18.2,61,0.00,,,0.00,Rainwise IP-100,2013-01-18 05:48:00,
2013-01-18 00:53:00,13.3,4.0,30.09,NNW,337,1.6,12.8,62,0.00,,,0.00,Rainwise IP-100,2013-01-18 05:53:00,
2013-01-18 00:58:00,13.5,4.0,30.09,South,180,2.8,8.9,63,0.00,,,0.00,Rainwise IP-100,2013-01-18 05:58:00,
2013-01-18 01:03:00,13.6,4.0,30.10,NE,45,9.3,13.5,64,0.00,,,0.00,Rainwise IP-100,2013-01-18 06:03:00,
2013-01-18 01:08:00,13.4,4.0,30.11,West,270,1.9,14.2,64,0.00,,,0.00,Rainwise IP-100,2013-01-18 06:08:00,
2013-01-18 01:13:00,13.6,4.0,30.12,NNE,22,2.3,6.3,65,0.00,,,0.00,Rainwise IP-100,2013-01-18 06:13:00,
2013-01-18 01:18:00,14.0,4.0,30.12,North,0,0.0,8.9,67,0.00,,,0.00,Rainwise IP-100,2013-01-18 06:18:00,
2013-01-18 01:23:00,14.3,4.0,30.12,SW,225,0.0,7.2,68,0.00,,,0.00,Rainwise IP-100,2013-01-18 06:23:00,
2013-01-18 01:28:00,14.2,4.0,30.13,East,90,0.0,13.8,68,0.00,,,0.00,Rainwise IP-100,2013-01-18 06:28:00,
2013-01-18 01:33:00,14.0,4.0,30.14,NNW,337,0.0,11.7,68,0.00,,,0.00,Rainwise IP-100,2013-01-18 06:33:00,
2013-01-18 01:38:00,14.1,8.0,30.14,SW,225,1.2,11.2,69,0.00,,,0.00,Rainwise IP-100,2013-01-18 06:38:00,
2013-01-18 01:43:00,14.0,8.0,30.14,NNE,22,0.0,7.7,70,0.00,,,0.00,Rainwise IP-100,2013-01-18 06:43:00,
2013-01-18 01:48:00,13.6,8.0,30.13,NNW,337,5.8,11.0,69,0.00,,,0.00,Rainwise IP-100,2013-01-18 06:48:00,
2013-01-18 01:53:00,13.4,8.0,30.14,SW,225,1.4,7.5,69,0.00,,,0.00,Rainwise IP-100,2013-01-18 06:53:00,
2013-01-18 01:58:00,13.5,8.0,30.14,NNW,337,1.2,11.9,71,0.00,,,0.00,Rainwise IP-100,2013-01-18 06:58:00,
2013-01-18 02:03:00,13.5,8.0,30.12,North,0,4.2,8.6,71,0.00,,,0.00,Rainwise IP-100,2013-01-18 07:03:00,
2013-01-18 02:08:00,13.6,8.0,30.11,West,270,0.0,11.2,72,0.00,,,0.00,Rainwise IP-100,2013-01-18 07:08:00,
2013-01-18 02:13:00,13.5,8.0,30.12,North,0,0.0,6.3,73,0.00,,,0.00,Rainwise IP-100,2013-01-18 07:13:00,
2013-01-18 02:18:00,13.5,8.0,30.12,NNW,337,0.0,4.9,73,0.00,,,0.00,Rainwise IP-100,2013-01-18 07:18:00,
2013-01-18 02:23:00,13.5,8.0,30.11,NE,45,1.4,11.7,73,0.00,,,0.00,Rainwise IP-100,2013-01-18 07:23:00,
2013-01-18 02:28:00,13.2,8.0,30.10,North,0,1.4,12.4,73,0.00,,,0.00,Rainwise IP-100,2013-01-18 07:28:00,
2013-01-18 02:33:00,12.8,8.0,30.10,NNE,22,1.6,12.8,73,0.00,,,0.00,Rainwise IP-100,2013-01-18 07:33:00,
2013-01-18 02:38:00,12.2,8.0,30.10,North,0,0.0,19.4,71,0.00,,,0.00,Rainwise IP-100,2013-01-18 07:38:00,
2013-01-18 02:43:00,11.6,4.0,30.10,NE,45,2.8,15.9,68,0.00,,,0.00,Rainwise IP-100,2013-01-18 07:43:00,
2013-01-18 02:48:00,11.3,4.0,30.10,NNE,22,11.7,18.2,68,0.00,,,0.00,Rainwise IP-100,2013-01-18 07:48:00,
2013-01-18 02:53:00,11.1,4.0,30.11,NE,45,1.2,19.1,67,0.00,,,0.00,Rainwise IP-100,2013-01-18 07:53:00,
2013-01-18 02:58:00,11.1,4.0,30.11,WNW,292,1.4,17.5,67,0.00,,,0.00,Rainwise IP-100,2013-01-18 07:58:00,
2013-01-18 03:03:00,11.1,4.0,30.11,NE,45,15.9,17.7,67,0.00,,,0.00,Rainwise IP-100,2013-01-18 08:03:00,
2013-01-18 03:08:00,11.0,4.0,30.13,NNE,22,8.2,18.4,66,0.00,,,0.00,Rainwise IP-100,2013-01-18 08:08:00,
2013-01-18 03:13:00,10.9,4.0,30.12,NNE,22,8.6,16.8,65,0.00,,,0.00,Rainwise IP-100,2013-01-18 08:13:00,
2013-01-18 03:18:00,10.9,4.0,30.11,SW,225,1.2,13.3,65,0.00,,,0.00,Rainwise IP-100,2013-01-18 08:18:00,
2013-01-18 03:23:00,11.0,4.0,30.10,NE,45,7.9,16.1,67,0.00,,,0.00,Rainwise IP-100,2013-01-18 08:23:00,
2013-01-18 03:28:00,11.2,4.0,30.09,SW,225,0.0,12.8,68,0.00,,,0.00,Rainwise IP-100,2013-01-18 08:28:00,
2013-01-18 03:33:00,11.7,8.0,30.10,North,0,11.2,11.2,70,0.00,,,0.00,Rainwise IP-100,2013-01-18 08:33:00,
2013-01-18 03:38:00,12.1,8.0,30.11,NE,45,1.4,11.2,71,0.00,,,0.00,Rainwise IP-100,2013-01-18 08:38:00,
2013-01-18 03:43:00,12.4,8.0,30.11,NNE,22,1.6,12.4,72,0.00,,,0.00,Rainwise IP-100,2013-01-18 08:43:00,
2013-01-18 03:48:00,12.9,8.0,30.11,East,90,0.0,9.1,72,0.00,,,0.00,Rainwise IP-100,2013-01-18 08:48:00,
2013-01-18 03:53:00,13.1,8.0,30.11,East,90,1.9,15.4,73,0.00,,,0.00,Rainwise IP-100,2013-01-18 08:53:00,
2013-01-18 03:57:00,13.1,8.0,30.11,WNW,292,1.2,7.7,72,0.00,,,0.00,Rainwise IP-100,2013-01-18 08:57:00,
2013-01-18 04:02:00,12.9,8.0,30.11,South,180,2.6,9.3,71,0.00,,,0.00,Rainwise IP-100,2013-01-18 09:02:00,
2013-01-18 04:08:00,12.9,8.0,30.12,North,0,4.7,7.2,71,0.00,,,0.00,Rainwise IP-100,2013-01-18 09:08:00,
2013-01-18 04:13:00,12.8,8.0,30.11,NNE,22,1.9,5.6,71,0.00,,,0.00,Rainwise IP-100,2013-01-18 09:13:00,
2013-01-18 04:18:00,12.7,8.0,30.11,NW,315,2.3,8.9,71,0.00,,,0.00,Rainwise IP-100,2013-01-18 09:18:00,
2013-01-18 04:23:00,12.9,8.0,30.10,NNW,337,1.2,7.7,72,0.00,,,0.00,Rainwise IP-100,2013-01-18 09:23:00,
2013-01-18 04:28:00,12.8,8.0,30.11,NNW,337,7.7,13.3,72,0.00,,,0.00,Rainwise IP-100,2013-01-18 09:28:00,
2013-01-18 04:33:00,12.5,8.0,30.10,NE,45,4.9,8.9,72,0.00,,,0.00,Rainwise IP-100,2013-01-18 09:33:00,
2013-01-18 04:38:00,11.9,8.0,30.10,WNW,292,1.9,9.3,71,0.00,,,0.00,Rainwise IP-100,2013-01-18 09:38:00,
2013-01-18 04:43:00,11.5,8.0,30.11,ENE,67,0.0,12.1,69,0.00,,,0.00,Rainwise IP-100,2013-01-18 09:43:00,
2013-01-18 04:48:00,11.5,8.0,30.12,SE,135,1.2,7.5,70,0.00,,,0.00,Rainwise IP-100,2013-01-18 09:48:00,
2013-01-18 04:53:00,11.6,8.0,30.13,NW,315,1.2,5.1,72,0.00,,,0.00,Rainwise IP-100,2013-01-18 09:53:00,
2013-01-18 04:58:00,11.5,8.0,30.14,NNE,22,1.2,3.5,72,0.00,,,0.00,Rainwise IP-100,2013-01-18 09:58:00,
2013-01-18 05:03:00,11.4,4.0,30.13,North,0,2.1,9.8,72,0.00,,,0.00,Rainwise IP-100,2013-01-18 10:03:00,
2013-01-18 05:08:00,11.4,4.0,30.14,NW,315,1.6,11.0,72,0.00,,,0.00,Rainwise IP-100,2013-01-18 10:08:00,
2013-01-18 05:13:00,11.4,4.0,30.13,SW,225,1.9,8.9,72,0.00,,,0.00,Rainwise IP-100,2013-01-18 10:13:00,
2013-01-18 05:18:00,11.1,4.0,30.13,SW,225,1.4,7.7,70,0.00,,,0.00,Rainwise IP-100,2013-01-18 10:18:00,
2013-01-18 05:23:00,10.8,4.0,30.13,East,90,2.6,11.4,69,0.00,,,0.00,Rainwise IP-100,2013-01-18 10:23:00,
2013-01-18 05:28:00,10.7,4.0,30.14,North,0,1.2,6.3,70,0.00,,,0.00,Rainwise IP-100,2013-01-18 10:28:00,
2013-01-18 05:33:00,10.8,4.0,30.13,SE,135,1.6,8.4,71,0.00,,,0.00,Rainwise IP-100,2013-01-18 10:33:00,
2013-01-18 05:38:00,10.9,4.0,30.13,South,180,0.0,11.7,71,0.00,,,0.00,Rainwise IP-100,2013-01-18 10:38:00,
2013-01-18 05:43:00,11.0,4.0,30.14,North,0,1.6,17.3,72,0.00,,,0.00,Rainwise IP-100,2013-01-18 10:43:00,
2013-01-18 05:48:00,11.2,4.0,30.16,NW,315,1.9,10.5,73,0.00,,,0.00,Rainwise IP-100,2013-01-18 10:48:00,
2013-01-18 05:53:00,11.1,4.0,30.17,NNW,337,3.0,7.7,73,0.00,,,0.00,Rainwise IP-100,2013-01-18 10:53:00,
2013-01-18 05:58:00,11.0,4.0,30.17,WNW,292,0.0,10.3,73,0.00,,,0.00,Rainwise IP-100,2013-01-18 10:58:00,
2013-01-18 06:03:00,11.0,4.0,30.18,NW,315,2.6,5.8,73,0.00,,,0.00,Rainwise IP-100,2013-01-18 11:03:00,
2013-01-18 06:08:00,10.9,4.0,30.16,North,0,6.8,13.8,73,0.00,,,0.00,Rainwise IP-100,2013-01-18 11:08:00,
2013-01-18 06:13:00,11.0,4.0,30.16,ESE,112,1.6,16.6,74,0.00,,,0.00,Rainwise IP-100,2013-01-18 11:13:00,
2013-01-18 06:18:00,11.0,4.0,30.16,NE,45,1.9,9.8,74,0.00,,,0.00,Rainwise IP-100,2013-01-18 11:18:00,
2013-01-18 06:23:00,10.6,4.0,30.14,NW,315,9.1,9.1,72,0.00,,,0.00,Rainwise IP-100,2013-01-18 11:23:00,
2013-01-18 06:28:00,10.2,4.0,30.16,WSW,247,1.6,13.3,70,0.00,,,0.00,Rainwise IP-100,2013-01-18 11:28:00,
2013-01-18 06:33:00,9.9,4.0,30.15,NNW,337,14.0,14.2,70,0.00,,,0.00,Rainwise IP-100,2013-01-18 11:33:00,
2013-01-18 06:38:00,9.7,4.0,30.16,North,0,3.5,14.2,71,0.00,,,0.00,Rainwise IP-100,2013-01-18 11:38:00,
2013-01-18 06:43:00,9.5,4.0,30.15,North,0,2.3,17.3,72,0.00,,,0.00,Rainwise IP-100,2013-01-18 11:43:00,
2013-01-18 06:48:00,9.7,4.0,30.17,NW,315,1.2,6.1,73,0.00,,,0.00,Rainwise IP-100,2013-01-18 11:48:00,
2013-01-18 06:53:00,9.8,4.0,30.17,East,90,2.6,6.5,74,0.00,,,0.00,Rainwise IP-100,2013-01-18 11:53:00,
2013-01-18 06:58:00,9.3,4.0,30.17,NE,45,11.2,11.9,73,0.00,,,0.00,Rainwise IP-100,2013-01-18 11:58:00,
2013-01-18 07:03:00,8.9,4.0,30.18,West,270,1.2,11.9,72,0.00,,,0.00,Rainwise IP-100,2013-01-18 12:03:00,
2013-01-18 07:08:00,8.7,4.0,30.18,South,180,1.4,10.3,73,0.00,,,0.00,Rainwise IP-100,2013-01-18 12:08:00,
2013-01-18 07:13:00,8.6,4.0,30.19,North,0,2.1,10.5,73,0.00,,,0.00,Rainwise IP-100,2013-01-18 12:13:00,
2013-01-18 07:18:00,8.4,0.0,30.19,West,270,0.0,7.0,73,0.00,,,0.00,Rainwise IP-100,2013-01-18 12:18:00,
2013-01-18 07:23:00,8.4,0.0,30.19,NNW,337,3.0,4.2,74,0.00,,,0.00,Rainwise IP-100,2013-01-18 12:23:00,
2013-01-18 07:28:00,8.2,0.0,30.20,East,90,1.4,11.9,74,0.00,,,0.00,Rainwise IP-100,2013-01-18 12:28:00,
2013-01-18 07:33:00,7.8,0.0,30.19,West,270,2.3,9.1,73,0.00,,,0.00,Rainwise IP-100,2013-01-18 12:33:00,
2013-01-18 07:38:00,7.7,0.0,30.19,West,270,1.6,8.9,74,0.00,,,0.00,Rainwise IP-100,2013-01-18 12:38:00,
2013-01-18 07:43:00,7.9,4.0,30.19,NE,45,0.0,5.8,75,0.00,,,0.00,Rainwise IP-100,2013-01-18 12:43:00,
2013-01-18 07:48:00,8.0,4.0,30.19,NW,315,1.2,9.3,75,0.00,,,0.00,Rainwise IP-100,2013-01-18 12:48:00,
2013-01-18 07:53:00,8.0,4.0,30.20,West,270,2.8,12.8,75,0.00,,,0.00,Rainwise IP-100,2013-01-18 12:53:00,
2013-01-18 07:58:00,8.0,4.0,30.20,NW,315,1.6,15.6,75,0.00,,,0.00,Rainwise IP-100,2013-01-18 12:58:00,
2013-01-18 08:03:00,8.3,4.0,30.19,NW,315,2.6,10.0,76,0.00,,,0.00,Rainwise IP-100,2013-01-18 13:03:00,
2013-01-18 08:08:00,9.0,4.0,30.20,SE,135,2.1,10.3,76,0.00,,,0.00,Rainwise IP-100,2013-01-18 13:08:00,
2013-01-18 08:13:00,9.4,4.0,30.21,West,270,3.0,15.4,77,0.00,,,0.00,Rainwise IP-100,2013-01-18 13:13:00,
2013-01-18 08:18:00,9.2,4.0,30.21,SW,225,1.4,15.6,76,0.00,,,0.00,Rainwise IP-100,2013-01-18 13:18:00,
2013-01-18 08:23:00,9.2,4.0,30.21,South,180,0.0,11.0,75,0.00,,,0.00,Rainwise IP-100,2013-01-18 13:23:00,
2013-01-18 08:28:00,9.5,4.0,30.21,South,180,0.0,6.5,76,0.00,,,0.00,Rainwise IP-100,2013-01-18 13:28:00,
2013-01-18 08:33:00,9.6,4.0,30.21,NW,315,4.0,11.2,75,0.00,,,0.00,Rainwise IP-100,2013-01-18 13:33:00,
2013-01-18 08:38:00,9.5,4.0,30.22,NNW,337,3.0,11.7,75,0.00,,,0.00,Rainwise IP-100,2013-01-18 13:38:00,
2013-01-18 08:43:00,9.8,4.0,30.22,SSW,202,0.0,8.4,75,0.00,,,0.00,Rainwise IP-100,2013-01-18 13:43:00,
2013-01-18 08:48:00,9.7,4.0,30.23,SE,135,1.4,12.4,73,0.00,,,0.00,Rainwise IP-100,2013-01-18 13:48:00,
2013-01-18 08:53:00,9.7,4.0,30.22,West,270,1.2,9.6,72,0.00,,,0.00,Rainwise IP-100,2013-01-18 13:53:00,
2013-01-18 08:58:00,9.9,4.0,30.22,South,180,2.3,8.9,72,0.00,,,0.00,Rainwise IP-100,2013-01-18 13:58:00,
2013-01-18 09:03:00,9.9,4.0,30.22,SSE,157,0.0,9.3,71,0.00,,,0.00,Rainwise IP-100,2013-01-18 14:03:00,
2013-01-18 09:08:00,10.0,4.0,30.22,North,0,5.4,12.6,71,0.00,,,0.00,Rainwise IP-100,2013-01-18 14:08:00,
2013-01-18 09:13:00,10.0,4.0,30.22,NNW,337,0.0,14.0,70,0.00,,,0.00,Rainwise IP-100,2013-01-18 14:13:00,
2013-01-18 09:18:00,10.0,4.0,30.23,SW,225,1.2,4.0,69,0.00,,,0.00,Rainwise IP-100,2013-01-18 14:18:00,
2013-01-18 09:23:00,10.2,4.0,30.22,North,0,0.0,8.4,69,0.00,,,0.00,Rainwise IP-100,2013-01-18 14:23:00,
2013-01-18 09:28:00,10.7,4.0,30.22,NW,315,3.5,14.0,70,0.00,,,0.00,Rainwise IP-100,2013-01-18 14:28:00,
2013-01-18 09:33:00,11.0,4.0,30.23,NNE,22,1.2,20.8,71,0.00,,,0.00,Rainwise IP-100,2013-01-18 14:33:00,
2013-01-18 09:38:00,11.1,4.0,30.22,North,0,1.6,19.8,71,0.00,,,0.00,Rainwise IP-100,2013-01-18 14:38:00,
2013-01-18 09:43:00,11.1,4.0,30.23,South,180,0.0,20.5,70,0.00,,,0.00,Rainwise IP-100,2013-01-18 14:43:00,
2013-01-18 09:48:00,11.0,4.0,30.23,NW,315,1.2,18.9,69,0.00,,,0.00,Rainwise IP-100,2013-01-18 14:48:00,
2013-01-18 09:53:00,11.3,4.0,30.23,NNE,22,3.5,18.7,70,0.00,,,0.00,Rainwise IP-100,2013-01-18 14:53:00,
2013-01-18 09:58:00,11.7,8.0,30.23,West,270,1.9,11.0,70,0.00,,,0.00,Rainwise IP-100,2013-01-18 14:58:00,
2013-01-18 10:03:00,12.0,8.0,30.23,SSW,202,2.8,19.4,70,0.00,,,0.00,Rainwise IP-100,2013-01-18 15:03:00,
2013-01-18 10:08:00,12.1,8.0,30.23,North,0,2.8,9.3,69,0.00,,,0.00,Rainwise IP-100,2013-01-18 15:08:00,
2013-01-18 10:13:00,12.2,8.0,30.23,North,0,1.6,6.3,69,0.00,,,0.00,Rainwise IP-100,2013-01-18 15:13:00,
2013-01-18 10:18:00,12.3,4.0,30.22,WNW,292,1.2,14.2,67,0.00,,,0.00,Rainwise IP-100,2013-01-18 15:18:00,
2013-01-18 10:23:00,12.5,4.0,30.23,East,90,1.2,6.3,66,0.00,,,0.00,Rainwise IP-100,2013-01-18 15:23:00,
2013-01-18 10:28:00,12.5,4.0,30.23,WNW,292,2.6,22.9,66,0.00,,,0.00,Rainwise IP-100,2013-01-18 15:28:00,
2013-01-18 10:33:00,12.4,4.0,30.23,ESE,112,3.5,5.1,65,0.00,,,0.00,Rainwise IP-100,2013-01-18 15:33:00,
2013-01-18 10:38:00,12.7,4.0,30.23,North,0,1.4,21.7,66,0.00,,,0.00,Rainwise IP-100,2013-01-18 15:38:00,
2013-01-18 10:43:00,12.7,4.0,30.22,NE,45,1.4,20.1,65,0.00,,,0.00,Rainwise IP-100,2013-01-18 15:43:00,
2013-01-18 10:48:00,12.5,4.0,30.21,NNW,337,12.8,23.6,64,0.00,,,0.00,Rainwise IP-100,2013-01-18 15:48:00,
2013-01-18 10:53:00,12.7,4.0,30.22,West,270,2.6,12.8,64,0.00,,,0.00,Rainwise IP-100,2013-01-18 15:53:00,
2013-01-18 10:58:00,13.0,4.0,30.22,SSW,202,1.4,19.6,64,0.00,,,0.00,Rainwise IP-100,2013-01-18 15:58:00,
2013-01-18 11:03:00,13.2,4.0,30.21,WNW,292,1.4,10.3,64,0.00,,,0.00,Rainwise IP-100,2013-01-18 16:03:00,
2013-01-18 11:08:00,13.3,4.0,30.20,NNW,337,20.5,23.1,63,0.00,,,0.00,Rainwise IP-100,2013-01-18 16:08:00,
2013-01-18 11:13:00,12.2,4.0,30.21,North,0,12.8,26.6,59,0.00,,,0.00,Rainwise IP-100,2013-01-18 16:13:00,
2013-01-18 11:18:00,10.9,0.0,30.21,SSE,157,3.5,26.8,54,0.00,,,0.00,Rainwise IP-100,2013-01-18 16:18:00,
2013-01-18 11:23:00,11.0,0.0,30.20,NNE,22,10.0,24.7,55,0.00,,,0.00,Rainwise IP-100,2013-01-18 16:23:00,
2013-01-18 11:28:00,11.6,4.0,30.21,NNE,22,1.2,22.4,57,0.00,,,0.00,Rainwise IP-100,2013-01-18 16:28:00,
2013-01-18 11:33:00,12.3,4.0,30.21,NE,45,1.2,21.7,59,0.00,,,0.00,Rainwise IP-100,2013-01-18 16:33:00,
2013-01-18 11:38:00,12.6,4.0,30.20,NNW,337,14.7,26.1,60,0.00,,,0.00,Rainwise IP-100,2013-01-18 16:38:00,
2013-01-18 11:43:00,11.9,0.0,30.20,NW,315,11.0,26.6,56,0.00,,,0.00,Rainwise IP-100,2013-01-18 16:43:00,
2013-01-18 11:48:00,10.8,0.0,30.21,NW,315,16.1,28.2,51,0.00,,,0.00,Rainwise IP-100,2013-01-18 16:48:00,
2013-01-18 11:53:00,10.2,-6.0,30.20,NNW,337,21.5,31.0,49,0.00,,,0.00,Rainwise IP-100,2013-01-18 16:53:00,
2013-01-18 11:58:00,10.1,-6.0,30.20,NW,315,26.3,29.6,49,0.00,,,0.00,Rainwise IP-100,2013-01-18 16:58:00,
2013-01-18 12:03:00,10.0,-6.0,30.21,NE,45,2.6,30.3,49,0.00,,,0.00,Rainwise IP-100,2013-01-18 17:03:00,
2013-01-18 12:08:00,10.5,0.0,30.21,North,0,3.5,24.5,51,0.00,,,0.00,Rainwise IP-100,2013-01-18 17:08:00,
2013-01-18 12:13:00,11.4,0.0,30.20,NW,315,21.5,26.8,56,0.00,,,0.00,Rainwise IP-100,2013-01-18 17:13:00,
2013-01-18 12:18:00,11.4,0.0,30.21,NW,315,5.8,26.6,55,0.00,,,0.00,Rainwise IP-100,2013-01-18 17:18:00,
2013-01-18 12:23:00,11.0,0.0,30.21,SW,225,3.3,25.9,50,0.00,,,0.00,Rainwise IP-100,2013-01-18 17:23:00,
2013-01-18 12:28:00,11.3,0.0,30.21,North,0,8.9,23.8,51,0.00,,,0.00,Rainwise IP-100,2013-01-18 17:28:00,
2013-01-18 12:33:00,11.5,0.0,30.20,NW,315,14.9,26.3,51,0.00,,,0.00,Rainwise IP-100,2013-01-18 17:33:00,
2013-01-18 12:38:00,11.4,0.0,30.21,NNW,337,19.1,25.6,50,0.00,,,0.00,Rainwise IP-100,2013-01-18 17:38:00,
2013-01-18 12:43:00,11.4,-6.0,30.21,NNW,337,21.7,28.0,48,0.00,,,0.00,Rainwise IP-100,2013-01-18 17:43:00,
2013-01-18 12:48:00,11.6,0.0,30.22,WNW,292,15.9,25.6,49,0.00,,,0.00,Rainwise IP-100,2013-01-18 17:48:00,
2013-01-18 12:53:00,11.6,0.0,30.22,NW,315,9.3,29.8,49,0.00,,,0.00,Rainwise IP-100,2013-01-18 17:53:00,
2013-01-18 12:58:00,12.0,0.0,30.22,NNW,337,18.9,24.2,51,0.00,,,0.00,Rainwise IP-100,2013-01-18 17:58:00,
2013-01-18 13:03:00,12.6,0.0,30.23,South,180,2.8,26.3,53,0.00,,,0.00,Rainwise IP-100,2013-01-18 18:03:00,
2013-01-18 13:08:00,12.6,0.0,30.22,WSW,247,4.0,25.4,51,0.00,,,0.00,Rainwise IP-100,2013-01-18 18:08:00,
2013-01-18 13:13:00,12.8,0.0,30.22,NW,315,24.5,28.2,52,0.00,,,0.00,Rainwise IP-100,2013-01-18 18:13:00,
2013-01-18 13:18:00,12.5,0.0,30.23,NNE,22,3.5,28.7,50,0.00,,,0.00,Rainwise IP-100,2013-01-18 18:18:00,
2013-01-18 13:23:00,12.2,0.0,30.23,NNW,337,30.1,30.1,50,0.00,,,0.00,Rainwise IP-100,2013-01-18 18:23:00,
2013-01-18 13:28:00,12.4,0.0,30.24,NNW,337,25.2,30.1,51,0.00,,,0.00,Rainwise IP-100,2013-01-18 18:28:00,
2013-01-18 13:33:00,12.5,0.0,30.24,NW,315,17.0,27.7,50,0.00,,,0.00,Rainwise IP-100,2013-01-18 18:33:00,
2013-01-18 13:38:00,12.6,0.0,30.24,NW,315,15.9,28.2,50,0.00,,,0.00,Rainwise IP-100,2013-01-18 18:38:00,
2013-01-18 13:43:00,12.8,0.0,30.23,NNW,337,21.5,28.7,50,0.00,,,0.00,Rainwise IP-100,2013-01-18 18:43:00,
2013-01-18 13:48:00,13.1,0.0,30.24,NNW,337,17.7,30.5,51,0.00,,,0.00,Rainwise IP-100,2013-01-18 18:48:00,
2013-01-18 13:53:00,13.3,0.0,30.24,North,0,24.2,29.4,51,0.00,,,0.00,Rainwise IP-100,2013-01-18 18:53:00,
2013-01-18 13:58:00,13.4,0.0,30.25,North,0,14.5,31.5,52,0.00,,,0.00,Rainwise IP-100,2013-01-18 18:58:00,
2013-01-18 14:03:00,14.0,0.0,30.24,SE,135,1.2,25.9,54,0.00,,,0.00,Rainwise IP-100,2013-01-18 19:03:00,
2013-01-18 14:08:00,14.8,4.0,30.24,NE,45,3.0,27.5,58,0.00,,,0.00,Rainwise IP-100,2013-01-18 19:08:00,
2013-01-18 14:13:00,15.3,4.0,30.25,NNW,337,15.2,21.2,58,0.00,,,0.00,Rainwise IP-100,2013-01-18 19:13:00,
2013-01-18 14:18:00,15.3,4.0,30.24,ENE,67,3.0,25.4,59,0.00,,,0.00,Rainwise IP-100,2013-01-18 19:18:00,
2013-01-18 14:23:00,15.4,4.0,30.26,NNE,22,14.9,25.9,58,0.00,,,0.00,Rainwise IP-100,2013-01-18 19:23:00,
2013-01-18 14:28:00,15.6,4.0,30.25,NW,315,0.0,23.8,58,0.00,,,0.00,Rainwise IP-100,2013-01-18 19:28:00,
2013-01-18 14:33:00,15.6,4.0,30.24,North,0,1.2,26.6,58,0.00,,,0.00,Rainwise IP-100,2013-01-18 19:33:00,
2013-01-18 14:38:00,15.8,4.0,30.26,West,270,1.2,10.7,58,0.00,,,0.00,Rainwise IP-100,2013-01-18 19:38:00,
2013-01-18 14:43:00,16.1,4.0,30.25,WNW,292,16.6,18.0,59,0.00,,,0.00,Rainwise IP-100,2013-01-18 19:43:00,
2013-01-18 14:48:00,16.0,4.0,30.25,NNW,337,15.4,21.7,59,0.00,,,0.00,Rainwise IP-100,2013-01-18 19:48:00,
2013-01-18 14:53:00,15.6,4.0,30.26,North,0,1.2,22.4,56,0.00,,,0.00,Rainwise IP-100,2013-01-18 19:53:00,
2013-01-18 14:58:00,15.4,4.0,30.26,NNW,337,10.5,22.2,54,0.00,,,0.00,Rainwise IP-100,2013-01-18 19:58:00,
2013-01-18 15:03:00,14.9,4.0,30.26,NNW,337,14.2,21.5,52,0.00,,,0.00,Rainwise IP-100,2013-01-18 20:03:00,
2013-01-18 15:08:00,14.4,0.0,30.26,North,0,9.6,18.7,50,0.00,,,0.00,Rainwise IP-100,2013-01-18 20:08:00,
2013-01-18 15:13:00,14.4,0.0,30.26,NNW,337,13.8,16.8,50,0.00,,,0.00,Rainwise IP-100,2013-01-18 20:13:00,
2013-01-18 15:18:00,14.4,0.0,30.26,NNW,337,15.6,23.3,50,0.00,,,0.00,Rainwise IP-100,2013-01-18 20:18:00,
2013-01-18 15:23:00,14.2,0.0,30.27,NNW,337,19.1,26.1,50,0.00,,,0.00,Rainwise IP-100,2013-01-18 20:23:00,
2013-01-18 15:28:00,13.8,0.0,30.27,NNW,337,15.4,24.5,48,0.00,,,0.00,Rainwise IP-100,2013-01-18 20:28:00,
2013-01-18 15:33:00,13.6,0.0,30.28,NNW,337,13.1,18.7,47,0.00,,,0.00,Rainwise IP-100,2013-01-18 20:33:00,
2013-01-18 15:38:00,13.6,0.0,30.28,NW,315,11.0,19.4,46,0.00,,,0.00,Rainwise IP-100,2013-01-18 20:38:00,
2013-01-18 15:43:00,13.4,0.0,30.29,NW,315,7.5,20.3,46,0.00,,,0.00,Rainwise IP-100,2013-01-18 20:43:00,
2013-01-18 15:48:00,13.3,0.0,30.28,NW,315,11.7,20.3,46,0.00,,,0.00,Rainwise IP-100,2013-01-18 20:48:00,
2013-01-18 15:53:00,13.2,0.0,30.28,North,0,10.5,20.1,46,0.00,,,0.00,Rainwise IP-100,2013-01-18 20:53:00,
2013-01-18 15:58:00,12.9,0.0,30.29,NNW,337,11.4,21.5,47,0.00,,,0.00,Rainwise IP-100,2013-01-18 20:58:00,
2013-01-18 16:03:00,12.8,0.0,30.29,NW,315,16.3,22.4,48,0.00,,,0.00,Rainwise IP-100,2013-01-18 21:03:00,
2013-01-18 16:08:00,12.8,0.0,30.29,NNW,337,10.5,20.5,48,0.00,,,0.00,Rainwise IP-100,2013-01-18 21:08:00,
2013-01-18 16:13:00,12.9,0.0,30.30,WNW,292,12.6,21.7,48,0.00,,,0.00,Rainwise IP-100,2013-01-18 21:13:00,
2013-01-18 16:18:00,12.8,0.0,30.30,West,270,12.4,18.9,47,0.00,,,0.00,Rainwise IP-100,2013-01-18 21:18:00,
2013-01-18 16:23:00,12.4,0.0,30.31,NW,315,7.2,17.3,45,0.00,,,0.00,Rainwise IP-100,2013-01-18 21:23:00,
2013-01-18 16:28:00,12.2,0.0,30.31,NW,315,7.0,16.3,44,0.00,,,0.00,Rainwise IP-100,2013-01-18 21:28:00,
2013-01-18 16:33:00,12.1,0.0,30.31,NW,315,7.2,13.3,44,0.00,,,0.00,Rainwise IP-100,2013-01-18 21:33:00,
2013-01-18 16:38:00,12.1,0.0,30.31,NW,315,7.5,11.7,45,0.00,,,0.00,Rainwise IP-100,2013-01-18 21:38:00,
2013-01-18 16:43:00,12.0,0.0,30.31,NW,315,4.4,10.7,45,0.00,,,0.00,Rainwise IP-100,2013-01-18 21:43:00,
2013-01-18 16:48:00,11.9,0.0,30.31,NW,315,8.2,9.8,45,0.00,,,0.00,Rainwise IP-100,2013-01-18 21:48:00,
2013-01-18 16:53:00,11.8,0.0,30.31,West,270,7.0,12.4,45,0.00,,,0.00,Rainwise IP-100,2013-01-18 21:53:00,
2013-01-18 16:58:00,11.7,0.0,30.31,WNW,292,5.6,9.8,45,0.00,,,0.00,Rainwise IP-100,2013-01-18 21:58:00,
2013-01-18 17:03:00,11.6,0.0,30.32,NW,315,4.4,8.2,46,0.00,,,0.00,Rainwise IP-100,2013-01-18 22:03:00,
2013-01-18 17:08:00,11.6,0.0,30.31,NNW,337,4.0,8.6,46,0.00,,,0.00,Rainwise IP-100,2013-01-18 22:08:00,
2013-01-18 17:13:00,11.6,0.0,30.32,WNW,292,7.9,12.1,46,0.00,,,0.00,Rainwise IP-100,2013-01-18 22:13:00,
2013-01-18 17:18:00,11.7,0.0,30.32,West,270,5.4,8.4,46,0.00,,,0.00,Rainwise IP-100,2013-01-18 22:18:00,
2013-01-18 17:23:00,11.8,0.0,30.32,WNW,292,3.5,6.1,46,0.00,,,0.00,Rainwise IP-100,2013-01-18 22:23:00,
2013-01-18 17:28:00,11.7,0.0,30.32,WNW,292,7.7,8.9,46,0.00,,,0.00,Rainwise IP-100,2013-01-18 22:28:00,
2013-01-18 17:33:00,11.7,0.0,30.32,West,270,3.3,7.9,46,0.00,,,0.00,Rainwise IP-100,2013-01-18 22:33:00,
2013-01-18 17:38:00,11.7,0.0,30.31,WNW,292,4.9,6.3,46,0.00,,,0.00,Rainwise IP-100,2013-01-18 22:38:00,
2013-01-18 17:43:00,11.7,0.0,30.32,West,270,4.4,5.6,46,0.00,,,0.00,Rainwise IP-100,2013-01-18 22:43:00,
2013-01-18 17:48:00,11.6,0.0,30.32,West,270,2.6,6.3,47,0.00,,,0.00,Rainwise IP-100,2013-01-18 22:48:00,
2013-01-18 17:53:00,11.6,0.0,30.32,WNW,292,1.6,5.8,48,0.00,,,0.00,Rainwise IP-100,2013-01-18 22:53:00,
2013-01-18 17:58:00,11.5,0.0,30.32,SW,225,0.0,3.0,49,0.00,,,0.00,Rainwise IP-100,2013-01-18 22:58:00,
2013-01-18 18:03:00,11.3,0.0,30.32,SW,225,1.4,3.0,50,0.00,,,0.00,Rainwise IP-100,2013-01-18 23:03:00,
2013-01-18 18:08:00,11.2,0.0,30.32,WNW,292,1.6,6.8,50,0.00,,,0.00,Rainwise IP-100,2013-01-18 23:08:00,
2013-01-18 18:13:00,11.4,0.0,30.32,WNW,292,3.7,7.2,50,0.00,,,0.00,Rainwise IP-100,2013-01-18 23:13:00,
2013-01-18 18:18:00,11.6,0.0,30.32,WNW,292,2.8,4.7,49,0.00,,,0.00,Rainwise IP-100,2013-01-18 23:18:00,
2013-01-18 18:23:00,11.7,0.0,30.32,WSW,247,1.2,7.9,49,0.00,,,0.00,Rainwise IP-100,2013-01-18 23:23:00,
2013-01-18 18:28:00,11.9,0.0,30.33,West,270,2.6,6.5,49,0.00,,,0.00,Rainwise IP-100,2013-01-18 23:28:00,
2013-01-18 18:33:00,12.1,0.0,30.33,WSW,247,5.8,9.6,49,0.00,,,0.00,Rainwise IP-100,2013-01-18 23:33:00,
2013-01-18 18:38:00,12.2,0.0,30.33,West,270,4.4,9.6,49,0.00,,,0.00,Rainwise IP-100,2013-01-18 23:38:00,
2013-01-18 18:43:00,12.3,0.0,30.33,West,270,3.5,8.4,49,0.00,,,0.00,Rainwise IP-100,2013-01-18 23:43:00,
2013-01-18 18:48:00,12.3,0.0,30.33,WNW,292,5.4,9.8,49,0.00,,,0.00,Rainwise IP-100,2013-01-18 23:48:00,
2013-01-18 18:53:00,12.3,0.0,30.33,West,270,0.0,6.5,50,0.00,,,0.00,Rainwise IP-100,2013-01-18 23:53:00,
2013-01-18 18:58:00,12.2,0.0,30.33,West,270,4.0,7.5,51,0.00,,,0.00,Rainwise IP-100,2013-01-18 23:58:00,
2013-01-18 19:03:00,12.2,0.0,30.33,West,270,2.8,8.6,52,0.00,,,0.00,Rainwise IP-100,2013-01-19 00:03:00,
2013-01-18 19:08:00,12.2,0.0,30.33,WNW,292,2.8,4.9,52,0.00,,,0.00,Rainwise IP-100,2013-01-19 00:08:00,
2013-01-18 19:13:00,12.2,0.0,30.33,West,270,5.6,7.9,53,0.00,,,0.00,Rainwise IP-100,2013-01-19 00:13:00,
2013-01-18 19:18:00,12.2,0.0,30.33,WNW,292,1.9,6.3,53,0.00,,,0.00,Rainwise IP-100,2013-01-19 00:18:00,
2013-01-18 19:23:00,12.4,0.0,30.33,West,270,3.0,10.0,54,0.00,,,0.00,Rainwise IP-100,2013-01-19 00:23:00,
2013-01-18 19:28:00,12.5,0.0,30.33,West,270,8.4,8.4,54,0.00,,,0.00,Rainwise IP-100,2013-01-19 00:28:00,
2013-01-18 19:33:00,12.7,0.0,30.32,WNW,292,14.9,14.9,54,0.00,,,0.00,Rainwise IP-100,2013-01-19 00:33:00,
2013-01-18 19:38:00,13.2,0.0,30.33,West,270,9.6,17.3,53,0.00,,,0.00,Rainwise IP-100,2013-01-19 00:38:00,
2013-01-18 19:43:00,13.7,0.0,30.33,WNW,292,8.2,16.8,52,0.00,,,0.00,Rainwise IP-100,2013-01-19 00:43:00,
2013-01-18 19:48:00,14.1,0.0,30.33,West,270,7.7,17.5,51,0.00,,,0.00,Rainwise IP-100,2013-01-19 00:48:00,
2013-01-18 19:53:00,14.6,4.0,30.32,NW,315,9.1,18.2,50,0.00,,,0.00,Rainwise IP-100,2013-01-19 00:53:00,
2013-01-18 19:58:00,15.0,0.0,30.32,WNW,292,14.7,21.0,49,0.00,,,0.00,Rainwise IP-100,2013-01-19 00:58:00,
2013-01-18 20:03:00,15.4,0.0,30.33,WNW,292,12.1,23.6,48,0.00,,,0.00,Rainwise IP-100,2013-01-19 01:03:00,
2013-01-18 20:08:00,15.7,0.0,30.33,West,270,15.9,23.6,48,0.00,,,0.00,Rainwise IP-100,2013-01-19 01:08:00,
2013-01-18 20:13:00,15.9,0.0,30.33,WNW,292,10.5,21.0,47,0.00,,,0.00,Rainwise IP-100,2013-01-19 01:13:00,
2013-01-18 20:18:00,16.1,0.0,30.34,West,270,7.2,19.1,47,0.00,,,0.00,Rainwise IP-100,2013-01-19 01:18:00,
2013-01-18 20:23:00,16.2,0.0,30.34,West,270,15.4,24.0,47,0.00,,,0.00,Rainwise IP-100,2013-01-19 01:23:00,
2013-01-18 20:28:00,16.3,0.0,30.34,NW,315,10.0,21.0,46,0.00,,,0.00,Rainwise IP-100,2013-01-19 01:28:00,
2013-01-18 20:33:00,16.5,4.0,30.33,West,270,12.8,22.6,46,0.00,,,0.00,Rainwise IP-100,2013-01-19 01:33:00,
2013-01-18 20:38:00,16.6,4.0,30.34,WNW,292,16.1,22.9,46,0.00,,,0.00,Rainwise IP-100,2013-01-19 01:38:00,
2013-01-18 20:43:00,16.7,4.0,30.34,WNW,292,8.6,24.9,46,0.00,,,0.00,Rainwise IP-100,2013-01-19 01:43:00,
2013-01-18 20:48:00,16.8,4.0,30.34,WNW,292,13.5,21.2,45,0.00,,,0.00,Rainwise IP-100,2013-01-19 01:48:00,
2013-01-18 20:53:00,16.9,4.0,30.34,West,270,17.0,21.2,45,0.00,,,0.00,Rainwise IP-100,2013-01-19 01:53:00,
2013-01-18 20:58:00,16.9,4.0,30.35,NW,315,9.3,23.8,45,0.00,,,0.00,Rainwise IP-100,2013-01-19 01:58:00,
2013-01-18 21:03:00,17.1,4.0,30.35,West,270,10.3,20.3,45,0.00,,,0.00,Rainwise IP-100,2013-01-19 02:03:00,
2013-01-18 21:08:00,17.2,4.0,30.35,West,270,11.4,21.5,45,0.00,,,0.00,Rainwise IP-100,2013-01-19 02:08:00,
2013-01-18 21:13:00,17.2,4.0,30.35,NW,315,9.6,21.0,45,0.00,,,0.00,Rainwise IP-100,2013-01-19 02:13:00,
2013-01-18 21:18:00,17.2,4.0,30.35,NW,315,11.2,17.5,45,0.00,,,0.00,Rainwise IP-100,2013-01-19 02:18:00,
2013-01-18 21:23:00,17.2,4.0,30.35,NW,315,18.2,22.9,45,0.00,,,0.00,Rainwise IP-100,2013-01-19 02:23:00,
2013-01-18 21:28:00,17.3,4.0,30.36,NW,315,15.9,19.8,45,0.00,,,0.00,Rainwise IP-100,2013-01-19 02:28:00,
2013-01-18 21:33:00,17.4,0.0,30.35,WNW,292,14.7,21.9,44,0.00,,,0.00,Rainwise IP-100,2013-01-19 02:33:00,
2013-01-18 21:38:00,17.5,0.0,30.35,WNW,292,14.7,21.5,44,0.00,,,0.00,Rainwise IP-100,2013-01-19 02:38:00,
2013-01-18 21:43:00,17.5,0.0,30.36,WNW,292,11.0,22.2,44,0.00,,,0.00,Rainwise IP-100,2013-01-19 02:43:00,
2013-01-18 21:48:00,17.6,0.0,30.35,WNW,292,18.4,23.3,44,0.00,,,0.00,Rainwise IP-100,2013-01-19 02:48:00,
2013-01-18 21:53:00,17.6,0.0,30.35,NW,315,13.3,19.6,44,0.00,,,0.00,Rainwise IP-100,2013-01-19 02:53:00,
2013-01-18 21:58:00,17.5,0.0,30.34,WNW,292,11.2,15.2,44,0.00,,,0.00,Rainwise IP-100,2013-01-19 02:58:00,
2013-01-18 22:03:00,17.5,4.0,30.35,WNW,292,10.3,16.1,45,0.00,,,0.00,Rainwise IP-100,2013-01-19 03:03:00,
2013-01-18 22:08:00,17.5,4.0,30.36,NW,315,7.9,13.1,45,0.00,,,0.00,Rainwise IP-100,2013-01-19 03:08:00,
2013-01-18 22:13:00,17.5,4.0,30.36,NW,315,7.5,12.1,45,0.00,,,0.00,Rainwise IP-100,2013-01-19 03:13:00,
2013-01-18 22:18:00,17.4,4.0,30.35,NW,315,11.9,11.9,46,0.00,,,0.00,Rainwise IP-100,2013-01-19 03:18:00,
2013-01-18 22:23:00,17.4,4.0,30.34,WNW,292,6.5,13.8,46,0.00,,,0.00,Rainwise IP-100,2013-01-19 03:23:00,
2013-01-18 22:28:00,17.4,4.0,30.35,NW,315,13.1,13.1,47,0.00,,,0.00,Rainwise IP-100,2013-01-19 03:28:00,
2013-01-18 22:33:00,17.5,4.0,30.35,West,270,8.9,16.6,46,0.00,,,0.00,Rainwise IP-100,2013-01-19 03:33:00,
2013-01-18 22:38:00,17.6,4.0,30.34,WNW,292,11.2,16.1,46,0.00,,,0.00,Rainwise IP-100,2013-01-19 03:38:00,
2013-01-18 22:43:00,17.6,4.0,30.35,West,270,5.1,16.8,45,0.00,,,0.00,Rainwise IP-100,2013-01-19 03:43:00,
2013-01-18 22:48:00,17.7,4.0,30.35,WNW,292,6.3,16.3,45,0.00,,,0.00,Rainwise IP-100,2013-01-19 03:48:00,
2013-01-18 22:53:00,17.7,4.0,30.35,West,270,9.8,15.6,45,0.00,,,0.00,Rainwise IP-100,2013-01-19 03:53:00,
2013-01-18 22:58:00,17.6,4.0,30.35,WNW,292,11.2,14.0,45,0.00,,,0.00,Rainwise IP-100,2013-01-19 03:58:00,
2013-01-18 23:03:00,17.5,4.0,30.34,WNW,292,9.1,15.9,45,0.00,,,0.00,Rainwise IP-100,2013-01-19 04:03:00,
2013-01-18 23:08:00,17.6,4.0,30.35,WNW,292,7.0,15.2,45,0.00,,,0.00,Rainwise IP-100,2013-01-19 04:08:00,
2013-01-18 23:13:00,17.7,4.0,30.35,NW,315,9.1,12.4,45,0.00,,,0.00,Rainwise IP-100,2013-01-19 04:13:00,
2013-01-18 23:18:00,17.7,4.0,30.35,WNW,292,9.1,14.0,45,0.00,,,0.00,Rainwise IP-100,2013-01-19 04:18:00,
2013-01-18 23:23:00,17.8,4.0,30.35,WNW,292,5.1,16.3,45,0.00,,,0.00,Rainwise IP-100,2013-01-19 04:23:00,
2013-01-18 23:28:00,17.9,4.0,30.35,NW,315,8.2,13.3,45,0.00,,,0.00,Rainwise IP-100,2013-01-19 04:28:00,
2013-01-18 23:33:00,17.9,4.0,30.35,West,270,9.3,12.4,45,0.00,,,0.00,Rainwise IP-100,2013-01-19 04:33:00,
2013-01-18 23:38:00,17.7,4.0,30.36,West,270,8.6,11.4,45,0.00,,,0.00,Rainwise IP-100,2013-01-19 04:38:00,
2013-01-18 23:43:00,17.5,4.0,30.36,West,270,7.9,11.2,46,0.00,,,0.00,Rainwise IP-100,2013-01-19 04:43:00,
2013-01-18 23:48:00,17.5,4.0,30.35,West,270,9.3,11.4,46,0.00,,,0.00,Rainwise IP-100,2013-01-19 04:48:00,
2013-01-18 23:53:00,17.5,4.0,30.34,NW,315,5.6,12.1,46,0.00,,,0.00,Rainwise IP-100,2013-01-19 04:53:00,
2013-01-18 23:58:00,17.6,4.0,30.34,NW,315,6.3,11.0,45,0.00,,,0.00,Rainwise IP-100,2013-01-19 04:58:00,